sensor_id;sensor_type;location;lat;lon;timestamp;temperature;humidity
80176;DHT22;69501;42.124;24.722;2023-07-08T00:00:39;24.90;50.20
80176;DHT22;69501;42.124;24.722;2023-07-08T00:03:05;25.00;50.00
80176;DHT22;69501;42.124;24.722;2023-07-08T00:05:31;25.00;50.00
80176;DHT22;69501;42.124;24.722;2023-07-08T00:07:57;25.00;49.90
80176;DHT22;69501;42.124;24.722;2023-07-08T00:10:25;25.00;49.80
80176;DHT22;69501;42.124;24.722;2023-07-08T00:12:52;25.00;49.50
80176;DHT22;69501;42.124;24.722;2023-07-08T00:15:21;25.10;49.10
80176;DHT22;69501;42.124;24.722;2023-07-08T00:17:47;25.10;48.80
80176;DHT22;69501;42.124;24.722;2023-07-08T00:20:17;25.00;49.10
80176;DHT22;69501;42.124;24.722;2023-07-08T00:22:44;25.10;49.00
80176;DHT22;69501;42.124;24.722;2023-07-08T00:25:13;25.10;48.80
80176;DHT22;69501;42.124;24.722;2023-07-08T00:27:40;25.20;48.60
80176;DHT22;69501;42.124;24.722;2023-07-08T00:30:19;25.20;48.50
80176;DHT22;69501;42.124;24.722;2023-07-08T00:32:45;25.20;48.60
80176;DHT22;69501;42.124;24.722;2023-07-08T00:35:11;25.10;50.30
80176;DHT22;69501;42.124;24.722;2023-07-08T00:37:37;25.10;49.10
80176;DHT22;69501;42.124;24.722;2023-07-08T00:40:17;25.10;49.30
80176;DHT22;69501;42.124;24.722;2023-07-08T00:42:44;25.00;49.50
80176;DHT22;69501;42.124;24.722;2023-07-08T00:45:22;24.90;49.80
80176;DHT22;69501;42.124;24.722;2023-07-08T00:47:53;24.80;49.80
80176;DHT22;69501;42.124;24.722;2023-07-08T00:50:19;24.90;49.80
80176;DHT22;69501;42.124;24.722;2023-07-08T00:52:45;24.90;49.40
80176;DHT22;69501;42.124;24.722;2023-07-08T00:55:11;24.90;49.50
80176;DHT22;69501;42.124;24.722;2023-07-08T00:57:40;24.70;50.10
80176;DHT22;69501;42.124;24.722;2023-07-08T01:00:10;24.70;50.20
80176;DHT22;69501;42.124;24.722;2023-07-08T01:02:46;24.70;50.30
80176;DHT22;69501;42.124;24.722;2023-07-08T01:05:17;24.70;50.60
80176;DHT22;69501;42.124;24.722;2023-07-08T01:07:54;24.70;50.60
80176;DHT22;69501;42.124;24.722;2023-07-08T01:10:33;24.70;50.30
80176;DHT22;69501;42.124;24.722;2023-07-08T01:13:04;24.70;51.90
80176;DHT22;69501;42.124;24.722;2023-07-08T01:15:37;24.70;51.70
80176;DHT22;69501;42.124;24.722;2023-07-08T01:18:03;24.70;51.80
80176;DHT22;69501;42.124;24.722;2023-07-08T01:20:29;24.60;50.80
80176;DHT22;69501;42.124;24.722;2023-07-08T01:22:54;24.60;50.70
80176;DHT22;69501;42.124;24.722;2023-07-08T01:25:20;24.70;50.60
80176;DHT22;69501;42.124;24.722;2023-07-08T01:27:51;24.60;50.60
80176;DHT22;69501;42.124;24.722;2023-07-08T01:30:17;24.50;50.80
80176;DHT22;69501;42.124;24.722;2023-07-08T01:32:48;24.50;50.70
80176;DHT22;69501;42.124;24.722;2023-07-08T01:35:15;24.60;50.70
80176;DHT22;69501;42.124;24.722;2023-07-08T01:37:44;24.40;50.80
80176;DHT22;69501;42.124;24.722;2023-07-08T01:40:26;24.40;51.10
80176;DHT22;69501;42.124;24.722;2023-07-08T01:42:52;24.50;50.80
80176;DHT22;69501;42.124;24.722;2023-07-08T01:45:19;24.50;51.90
80176;DHT22;69501;42.124;24.722;2023-07-08T01:47:52;24.40;50.70
80176;DHT22;69501;42.124;24.722;2023-07-08T01:50:19;24.40;50.80
80176;DHT22;69501;42.124;24.722;2023-07-08T01:52:45;24.20;51.00
80176;DHT22;69501;42.124;24.722;2023-07-08T01:55:12;24.20;51.20
80176;DHT22;69501;42.124;24.722;2023-07-08T01:57:37;24.30;51.10
80176;DHT22;69501;42.124;24.722;2023-07-08T02:00:03;24.30;51.10
80176;DHT22;69501;42.124;24.722;2023-07-08T02:02:29;24.40;50.90
80176;DHT22;69501;42.124;24.722;2023-07-08T02:04:55;24.30;50.90
80176;DHT22;69501;42.124;24.722;2023-07-08T02:07:21;24.20;51.30
80176;DHT22;69501;42.124;24.722;2023-07-08T02:09:46;24.20;51.20
80176;DHT22;69501;42.124;24.722;2023-07-08T02:12:12;24.20;51.20
80176;DHT22;69501;42.124;24.722;2023-07-08T02:14:38;24.20;50.80
80176;DHT22;69501;42.124;24.722;2023-07-08T02:17:03;24.20;50.80
80176;DHT22;69501;42.124;24.722;2023-07-08T02:22:06;24.20;51.00
80176;DHT22;69501;42.124;24.722;2023-07-08T02:24:32;24.20;51.10
80176;DHT22;69501;42.124;24.722;2023-07-08T02:26:57;24.10;51.20
80176;DHT22;69501;42.124;24.722;2023-07-08T02:29:23;24.00;51.30
80176;DHT22;69501;42.124;24.722;2023-07-08T02:31:49;23.90;51.60
80176;DHT22;69501;42.124;24.722;2023-07-08T02:34:14;23.90;51.70
80176;DHT22;69501;42.124;24.722;2023-07-08T02:36:40;23.90;51.80
80176;DHT22;69501;42.124;24.722;2023-07-08T02:39:06;23.80;52.10
80176;DHT22;69501;42.124;24.722;2023-07-08T02:41:31;23.80;52.10
80176;DHT22;69501;42.124;24.722;2023-07-08T02:43:57;23.90;51.80
80176;DHT22;69501;42.124;24.722;2023-07-08T02:46:23;23.90;51.70
80176;DHT22;69501;42.124;24.722;2023-07-08T02:48:48;24.00;51.30
80176;DHT22;69501;42.124;24.722;2023-07-08T02:51:14;24.00;51.20
80176;DHT22;69501;42.124;24.722;2023-07-08T02:53:39;24.00;51.10
80176;DHT22;69501;42.124;24.722;2023-07-08T02:56:05;23.90;51.40
80176;DHT22;69501;42.124;24.722;2023-07-08T02:58:31;23.90;51.40
80176;DHT22;69501;42.124;24.722;2023-07-08T03:00:57;23.90;51.40
80176;DHT22;69501;42.124;24.722;2023-07-08T03:03:27;23.90;51.40
80176;DHT22;69501;42.124;24.722;2023-07-08T03:05:59;23.90;51.30
80176;DHT22;69501;42.124;24.722;2023-07-08T03:08:26;23.80;51.20
80176;DHT22;69501;42.124;24.722;2023-07-08T03:10:57;23.90;51.10
80176;DHT22;69501;42.124;24.722;2023-07-08T03:13:24;23.90;50.90
80176;DHT22;69501;42.124;24.722;2023-07-08T03:15:50;24.00;50.90
80176;DHT22;69501;42.124;24.722;2023-07-08T03:18:16;23.90;50.90
80176;DHT22;69501;42.124;24.722;2023-07-08T03:20:42;24.00;51.00
80176;DHT22;69501;42.124;24.722;2023-07-08T03:23:11;23.90;50.90
80176;DHT22;69501;42.124;24.722;2023-07-08T03:25:36;24.00;51.00
80176;DHT22;69501;42.124;24.722;2023-07-08T03:28:03;24.00;50.80
80176;DHT22;69501;42.124;24.722;2023-07-08T03:30:32;24.00;50.70
80176;DHT22;69501;42.124;24.722;2023-07-08T03:32:58;24.00;50.20
80176;DHT22;69501;42.124;24.722;2023-07-08T03:35:24;24.10;50.40
80176;DHT22;69501;42.124;24.722;2023-07-08T03:37:51;24.00;50.30
80176;DHT22;69501;42.124;24.722;2023-07-08T03:40:16;24.00;50.60
80176;DHT22;69501;42.124;24.722;2023-07-08T03:42:42;23.90;50.70
80176;DHT22;69501;42.124;24.722;2023-07-08T03:45:08;23.90;50.90
80176;DHT22;69501;42.124;24.722;2023-07-08T03:47:34;23.90;50.70
80176;DHT22;69501;42.124;24.722;2023-07-08T03:50:00;23.80;51.00
80176;DHT22;69501;42.124;24.722;2023-07-08T03:52:25;24.00;50.70
80176;DHT22;69501;42.124;24.722;2023-07-08T03:54:51;24.00;50.60
80176;DHT22;69501;42.124;24.722;2023-07-08T03:57:17;23.90;50.50
80176;DHT22;69501;42.124;24.722;2023-07-08T03:59:43;23.90;50.80
80176;DHT22;69501;42.124;24.722;2023-07-08T04:02:10;23.90;51.00
80176;DHT22;69501;42.124;24.722;2023-07-08T04:04:36;23.80;51.30
80176;DHT22;69501;42.124;24.722;2023-07-08T04:07:03;23.80;51.40
80176;DHT22;69501;42.124;24.722;2023-07-08T04:09:35;23.80;51.20
80176;DHT22;69501;42.124;24.722;2023-07-08T04:12:01;23.90;51.20
80176;DHT22;69501;42.124;24.722;2023-07-08T04:14:26;24.10;50.80
80176;DHT22;69501;42.124;24.722;2023-07-08T04:16:59;24.20;50.30
80176;DHT22;69501;42.124;24.722;2023-07-08T04:19:25;24.30;49.80
80176;DHT22;69501;42.124;24.722;2023-07-08T04:21:52;24.20;50.10
80176;DHT22;69501;42.124;24.722;2023-07-08T04:24:18;24.20;50.20
80176;DHT22;69501;42.124;24.722;2023-07-08T04:26:46;24.20;50.30
80176;DHT22;69501;42.124;24.722;2023-07-08T04:29:19;24.20;50.10
80176;DHT22;69501;42.124;24.722;2023-07-08T04:31:48;24.20;50.10
80176;DHT22;69501;42.124;24.722;2023-07-08T04:34:15;24.30;50.00
80176;DHT22;69501;42.124;24.722;2023-07-08T04:36:41;24.50;50.00
80176;DHT22;69501;42.124;24.722;2023-07-08T04:39:07;24.70;49.30
80176;DHT22;69501;42.124;24.722;2023-07-08T04:41:35;24.60;48.60
80176;DHT22;69501;42.124;24.722;2023-07-08T04:44:09;24.60;49.10
80176;DHT22;69501;42.124;24.722;2023-07-08T04:46:56;24.50;49.30
80176;DHT22;69501;42.124;24.722;2023-07-08T04:49:22;24.60;49.00
80176;DHT22;69501;42.124;24.722;2023-07-08T04:51:49;24.40;49.40
80176;DHT22;69501;42.124;24.722;2023-07-08T04:54:15;24.30;49.70
80176;DHT22;69501;42.124;24.722;2023-07-08T04:56:48;24.40;49.50
80176;DHT22;69501;42.124;24.722;2023-07-08T04:59:20;24.30;49.60
80176;DHT22;69501;42.124;24.722;2023-07-08T05:01:46;24.30;49.70
80176;DHT22;69501;42.124;24.722;2023-07-08T05:04:16;24.20;49.70
80176;DHT22;69501;42.124;24.722;2023-07-08T05:06:43;24.20;50.00
80176;DHT22;69501;42.124;24.722;2023-07-08T05:09:09;24.20;49.60
80176;DHT22;69501;42.124;24.722;2023-07-08T05:11:35;24.30;49.50
80176;DHT22;69501;42.124;24.722;2023-07-08T05:14:02;24.30;49.30
80176;DHT22;69501;42.124;24.722;2023-07-08T05:16:28;24.40;49.10
80176;DHT22;69501;42.124;24.722;2023-07-08T05:18:53;24.40;49.90
80176;DHT22;69501;42.124;24.722;2023-07-08T05:21:20;24.40;49.00
80176;DHT22;69501;42.124;24.722;2023-07-08T05:23:47;24.50;49.00
80176;DHT22;69501;42.124;24.722;2023-07-08T05:26:15;24.50;49.00
80176;DHT22;69501;42.124;24.722;2023-07-08T05:28:41;24.70;48.80
80176;DHT22;69501;42.124;24.722;2023-07-08T05:31:07;24.70;48.00
80176;DHT22;69501;42.124;24.722;2023-07-08T05:33:36;24.70;48.10
80176;DHT22;69501;42.124;24.722;2023-07-08T05:36:04;24.70;48.30
80176;DHT22;69501;42.124;24.722;2023-07-08T05:38:30;24.80;48.00
80176;DHT22;69501;42.124;24.722;2023-07-08T05:40:58;24.70;48.10
80176;DHT22;69501;42.124;24.722;2023-07-08T05:43:24;24.60;48.20
80176;DHT22;69501;42.124;24.722;2023-07-08T05:45:50;24.70;48.40
80176;DHT22;69501;42.124;24.722;2023-07-08T05:48:15;24.80;48.50
80176;DHT22;69501;42.124;24.722;2023-07-08T05:50:41;24.90;48.00
80176;DHT22;69501;42.124;24.722;2023-07-08T05:53:10;25.00;47.20
80176;DHT22;69501;42.124;24.722;2023-07-08T05:55:36;25.10;46.30
80176;DHT22;69501;42.124;24.722;2023-07-08T05:58:02;25.00;46.50
80176;DHT22;69501;42.124;24.722;2023-07-08T06:00:28;24.90;46.50
80176;DHT22;69501;42.124;24.722;2023-07-08T06:02:53;25.00;46.50
80176;DHT22;69501;42.124;24.722;2023-07-08T06:05:19;25.00;47.60
80176;DHT22;69501;42.124;24.722;2023-07-08T06:07:44;25.10;46.50
80176;DHT22;69501;42.124;24.722;2023-07-08T06:10:10;25.10;46.00
80176;DHT22;69501;42.124;24.722;2023-07-08T06:12:36;25.10;45.60
80176;DHT22;69501;42.124;24.722;2023-07-08T06:15:02;25.10;45.70
80176;DHT22;69501;42.124;24.722;2023-07-08T06:17:28;25.10;45.50
80176;DHT22;69501;42.124;24.722;2023-07-08T06:19:53;25.10;45.80
80176;DHT22;69501;42.124;24.722;2023-07-08T06:22:19;25.20;45.50
80176;DHT22;69501;42.124;24.722;2023-07-08T06:24:47;25.10;45.40
80176;DHT22;69501;42.124;24.722;2023-07-08T06:27:13;25.10;45.60
80176;DHT22;69501;42.124;24.722;2023-07-08T06:29:39;25.10;45.90
80176;DHT22;69501;42.124;24.722;2023-07-08T06:32:06;25.10;46.20
80176;DHT22;69501;42.124;24.722;2023-07-08T06:34:32;25.20;46.20
80176;DHT22;69501;42.124;24.722;2023-07-08T06:36:57;25.30;46.10
80176;DHT22;69501;42.124;24.722;2023-07-08T06:39:23;25.40;46.00
80176;DHT22;69501;42.124;24.722;2023-07-08T06:41:49;25.50;45.30
80176;DHT22;69501;42.124;24.722;2023-07-08T06:44:14;25.50;45.30
80176;DHT22;69501;42.124;24.722;2023-07-08T06:46:40;25.50;45.20
80176;DHT22;69501;42.124;24.722;2023-07-08T06:49:06;25.60;45.60
80176;DHT22;69501;42.124;24.722;2023-07-08T06:51:35;25.60;44.60
80176;DHT22;69501;42.124;24.722;2023-07-08T06:54:02;25.70;44.40
80176;DHT22;69501;42.124;24.722;2023-07-08T06:56:44;25.70;44.10
80176;DHT22;69501;42.124;24.722;2023-07-08T06:59:25;25.80;44.10
80176;DHT22;69501;42.124;24.722;2023-07-08T07:01:51;25.80;43.70
80176;DHT22;69501;42.124;24.722;2023-07-08T07:04:17;25.90;43.40
80176;DHT22;69501;42.124;24.722;2023-07-08T07:06:42;25.90;43.30
80176;DHT22;69501;42.124;24.722;2023-07-08T07:09:08;26.00;43.20
80176;DHT22;69501;42.124;24.722;2023-07-08T07:11:34;26.10;42.60
80176;DHT22;69501;42.124;24.722;2023-07-08T07:13:59;26.00;42.50
80176;DHT22;69501;42.124;24.722;2023-07-08T07:16:25;26.10;42.80
80176;DHT22;69501;42.124;24.722;2023-07-08T07:18:50;26.30;42.70
80176;DHT22;69501;42.124;24.722;2023-07-08T07:21:17;26.40;41.90
80176;DHT22;69501;42.124;24.722;2023-07-08T07:23:43;26.50;41.80
80176;DHT22;69501;42.124;24.722;2023-07-08T07:26:09;26.50;41.60
80176;DHT22;69501;42.124;24.722;2023-07-08T07:28:34;26.60;41.40
80176;DHT22;69501;42.124;24.722;2023-07-08T07:31:00;26.50;41.40
80176;DHT22;69501;42.124;24.722;2023-07-08T07:33:26;26.60;41.10
80176;DHT22;69501;42.124;24.722;2023-07-08T07:35:52;26.60;41.10
80176;DHT22;69501;42.124;24.722;2023-07-08T07:38:25;26.60;41.00
80176;DHT22;69501;42.124;24.722;2023-07-08T07:40:55;26.70;40.90
80176;DHT22;69501;42.124;24.722;2023-07-08T07:43:21;26.50;41.20
80176;DHT22;69501;42.124;24.722;2023-07-08T07:45:51;26.40;41.50
80176;DHT22;69501;42.124;24.722;2023-07-08T07:48:18;26.40;41.40
80176;DHT22;69501;42.124;24.722;2023-07-08T07:50:47;26.40;41.40
80176;DHT22;69501;42.124;24.722;2023-07-08T07:53:13;26.30;41.30
80176;DHT22;69501;42.124;24.722;2023-07-08T07:55:39;26.30;41.40
80176;DHT22;69501;42.124;24.722;2023-07-08T07:58:05;26.40;41.00
80176;DHT22;69501;42.124;24.722;2023-07-08T08:00:33;26.40;40.90
80176;DHT22;69501;42.124;24.722;2023-07-08T08:02:59;26.60;40.90
80176;DHT22;69501;42.124;24.722;2023-07-08T08:05:25;26.70;40.40
80176;DHT22;69501;42.124;24.722;2023-07-08T08:07:50;26.80;40.20
80176;DHT22;69501;42.124;24.722;2023-07-08T08:10:16;26.90;40.20
80176;DHT22;69501;42.124;24.722;2023-07-08T08:12:42;27.10;39.40
80176;DHT22;69501;42.124;24.722;2023-07-08T08:15:08;27.10;38.70
80176;DHT22;69501;42.124;24.722;2023-07-08T08:17:34;27.30;38.10
80176;DHT22;69501;42.124;24.722;2023-07-08T08:19:59;27.40;38.20
80176;DHT22;69501;42.124;24.722;2023-07-08T08:22:25;27.50;37.90
80176;DHT22;69501;42.124;24.722;2023-07-08T08:24:51;27.40;38.00
80176;DHT22;69501;42.124;24.722;2023-07-08T08:27:16;27.50;37.90
80176;DHT22;69501;42.124;24.722;2023-07-08T08:29:42;27.60;37.30
80176;DHT22;69501;42.124;24.722;2023-07-08T08:32:08;27.60;37.50
80176;DHT22;69501;42.124;24.722;2023-07-08T08:34:33;27.70;37.00
80176;DHT22;69501;42.124;24.722;2023-07-08T08:36:59;27.80;36.80
80176;DHT22;69501;42.124;24.722;2023-07-08T08:39:25;27.80;36.80
80176;DHT22;69501;42.124;24.722;2023-07-08T08:41:54;27.90;36.90
80176;DHT22;69501;42.124;24.722;2023-07-08T08:44:30;27.90;36.80
80176;DHT22;69501;42.124;24.722;2023-07-08T08:50:18;27.90;36.50
80176;DHT22;69501;42.124;24.722;2023-07-08T08:52:36;27.80;36.90
80176;DHT22;69501;42.124;24.722;2023-07-08T08:55:11;28.00;37.00
80176;DHT22;69501;42.124;24.722;2023-07-08T08:58:16;28.10;35.90
80176;DHT22;69501;42.124;24.722;2023-07-08T09:03:34;28.20;35.80
80176;DHT22;69501;42.124;24.722;2023-07-08T09:06:04;28.10;35.70
80176;DHT22;69501;42.124;24.722;2023-07-08T09:08:36;28.20;35.20
80176;DHT22;69501;42.124;24.722;2023-07-08T09:11:26;28.30;35.30
80176;DHT22;69501;42.124;24.722;2023-07-08T09:13:53;28.20;35.20
80176;DHT22;69501;42.124;24.722;2023-07-08T09:16:38;28.30;35.00
80176;DHT22;69501;42.124;24.722;2023-07-08T09:19:14;28.30;35.00
80176;DHT22;69501;42.124;24.722;2023-07-08T09:22:07;28.30;34.80
80176;DHT22;69501;42.124;24.722;2023-07-08T09:24:49;28.30;34.50
80176;DHT22;69501;42.124;24.722;2023-07-08T09:27:16;28.40;34.30
80176;DHT22;69501;42.124;24.722;2023-07-08T09:29:41;28.40;34.00
80176;DHT22;69501;42.124;24.722;2023-07-08T09:32:21;28.50;34.20
80176;DHT22;69501;42.124;24.722;2023-07-08T09:35:05;28.50;34.10
80176;DHT22;69501;42.124;24.722;2023-07-08T09:37:36;28.60;34.70
80176;DHT22;69501;42.124;24.722;2023-07-08T09:40:16;28.60;34.20
80176;DHT22;69501;42.124;24.722;2023-07-08T09:42:43;28.70;37.60
80176;DHT22;69501;42.124;24.722;2023-07-08T09:45:14;28.50;37.30
80176;DHT22;69501;42.124;24.722;2023-07-08T09:47:42;28.20;39.90
80176;DHT22;69501;42.124;24.722;2023-07-08T09:52:48;28.00;38.90
80176;DHT22;69501;42.124;24.722;2023-07-08T09:55:14;27.80;38.90
80176;DHT22;69501;42.124;24.722;2023-07-08T09:57:40;27.70;38.20
80176;DHT22;69501;42.124;24.722;2023-07-08T10:00:12;27.70;38.50
80176;DHT22;69501;42.124;24.722;2023-07-08T10:05:38;27.80;40.30
80176;DHT22;69501;42.124;24.722;2023-07-08T10:08:23;27.80;39.30
80176;DHT22;69501;42.124;24.722;2023-07-08T10:11:02;27.90;38.50
80176;DHT22;69501;42.124;24.722;2023-07-08T10:13:41;28.00;38.20
80176;DHT22;69501;42.124;24.722;2023-07-08T10:18:39;28.10;37.70
80176;DHT22;69501;42.124;24.722;2023-07-08T10:24:22;28.10;38.00
80176;DHT22;69501;42.124;24.722;2023-07-08T10:37:30;28.80;35.50
80176;DHT22;69501;42.124;24.722;2023-07-08T10:40:13;28.90;34.50
80176;DHT22;69501;42.124;24.722;2023-07-08T10:46:22;29.10;34.00
80176;DHT22;69501;42.124;24.722;2023-07-08T10:51:47;29.40;34.00
80176;DHT22;69501;42.124;24.722;2023-07-08T11:07:59;30.00;31.80
80176;DHT22;69501;42.124;24.722;2023-07-08T11:13:21;30.30;30.60
80176;DHT22;69501;42.124;24.722;2023-07-08T11:16:04;30.50;31.00
80176;DHT22;69501;42.124;24.722;2023-07-08T11:18:42;30.70;31.60
80176;DHT22;69501;42.124;24.722;2023-07-08T11:21:24;30.80;30.50
80176;DHT22;69501;42.124;24.722;2023-07-08T11:24:04;30.80;30.90
80176;DHT22;69501;42.124;24.722;2023-07-08T11:26:45;30.90;30.10
80176;DHT22;69501;42.124;24.722;2023-07-08T11:29:24;30.90;29.80
80176;DHT22;69501;42.124;24.722;2023-07-08T11:31:52;30.90;30.30
80176;DHT22;69501;42.124;24.722;2023-07-08T11:34:20;31.00;30.00
80176;DHT22;69501;42.124;24.722;2023-07-08T11:36:48;31.00;29.80
80176;DHT22;69501;42.124;24.722;2023-07-08T11:39:52;31.00;29.80
80176;DHT22;69501;42.124;24.722;2023-07-08T11:42:52;30.90;29.40
80176;DHT22;69501;42.124;24.722;2023-07-08T11:47:48;31.10;29.80
80176;DHT22;69501;42.124;24.722;2023-07-08T11:50:24;31.10;29.10
80176;DHT22;69501;42.124;24.722;2023-07-08T11:53:30;31.20;29.80
80176;DHT22;69501;42.124;24.722;2023-07-08T11:55:59;31.30;30.00
80176;DHT22;69501;42.124;24.722;2023-07-08T11:58:28;31.40;29.30
80176;DHT22;69501;42.124;24.722;2023-07-08T12:01:17;31.30;29.10
80176;DHT22;69501;42.124;24.722;2023-07-08T12:03:50;31.40;29.50
80176;DHT22;69501;42.124;24.722;2023-07-08T12:09:02;31.30;28.70
80176;DHT22;69501;42.124;24.722;2023-07-08T12:11:40;31.50;28.90
80176;DHT22;69501;42.124;24.722;2023-07-08T12:14:06;31.70;28.40
80176;DHT22;69501;42.124;24.722;2023-07-08T12:16:34;31.80;28.00
80176;DHT22;69501;42.124;24.722;2023-07-08T12:19:01;31.90;28.10
80176;DHT22;69501;42.124;24.722;2023-07-08T12:21:30;32.10;28.10
80176;DHT22;69501;42.124;24.722;2023-07-08T12:24:06;32.10;27.50
80176;DHT22;69501;42.124;24.722;2023-07-08T12:26:33;32.10;27.70
80176;DHT22;69501;42.124;24.722;2023-07-08T12:28:59;31.90;27.70
80176;DHT22;69501;42.124;24.722;2023-07-08T12:31:25;31.90;27.90
80176;DHT22;69501;42.124;24.722;2023-07-08T12:33:51;31.80;27.90
80176;DHT22;69501;42.124;24.722;2023-07-08T12:36:24;31.70;27.90
80176;DHT22;69501;42.124;24.722;2023-07-08T12:38:52;31.70;28.60
80176;DHT22;69501;42.124;24.722;2023-07-08T12:41:24;31.80;27.80
80176;DHT22;69501;42.124;24.722;2023-07-08T12:43:51;32.00;27.50
80176;DHT22;69501;42.124;24.722;2023-07-08T12:46:19;32.30;27.20
80176;DHT22;69501;42.124;24.722;2023-07-08T12:48:45;32.50;27.40
80176;DHT22;69501;42.124;24.722;2023-07-08T12:51:16;32.60;27.10
80176;DHT22;69501;42.124;24.722;2023-07-08T12:53:43;32.70;26.90
80176;DHT22;69501;42.124;24.722;2023-07-08T12:56:10;32.80;26.70
80176;DHT22;69501;42.124;24.722;2023-07-08T12:58:47;32.70;26.50
80176;DHT22;69501;42.124;24.722;2023-07-08T13:01:17;32.70;26.70
80176;DHT22;69501;42.124;24.722;2023-07-08T13:03:46;32.80;26.60
80176;DHT22;69501;42.124;24.722;2023-07-08T13:06:17;32.80;26.70
80176;DHT22;69501;42.124;24.722;2023-07-08T13:08:45;33.00;27.00
80176;DHT22;69501;42.124;24.722;2023-07-08T13:11:14;33.10;27.40
80176;DHT22;69501;42.124;24.722;2023-07-08T13:13:49;33.10;26.20
80176;DHT22;69501;42.124;24.722;2023-07-08T13:16:16;33.20;26.10
80176;DHT22;69501;42.124;24.722;2023-07-08T13:18:42;33.20;26.40
80176;DHT22;69501;42.124;24.722;2023-07-08T13:21:15;33.10;26.90
80176;DHT22;69501;42.124;24.722;2023-07-08T13:23:42;33.00;27.20
80176;DHT22;69501;42.124;24.722;2023-07-08T13:26:16;32.90;27.50
80176;DHT22;69501;42.124;24.722;2023-07-08T13:28:43;32.70;28.20
80176;DHT22;69501;42.124;24.722;2023-07-08T13:31:22;32.60;29.00
80176;DHT22;69501;42.124;24.722;2023-07-08T13:33:50;32.40;29.50
80176;DHT22;69501;42.124;24.722;2023-07-08T13:36:19;32.20;30.00
80176;DHT22;69501;42.124;24.722;2023-07-08T13:38:46;32.00;30.50
80176;DHT22;69501;42.124;24.722;2023-07-08T13:41:19;31.80;31.20
80176;DHT22;69501;42.124;24.722;2023-07-08T13:43:45;31.60;31.90
80176;DHT22;69501;42.124;24.722;2023-07-08T13:49:19;31.60;32.70
80176;DHT22;69501;42.124;24.722;2023-07-08T13:51:45;31.50;32.50
80176;DHT22;69501;42.124;24.722;2023-07-08T13:56:44;31.40;32.50
80176;DHT22;69501;42.124;24.722;2023-07-08T13:59:17;31.30;32.60
80176;DHT22;69501;42.124;24.722;2023-07-08T14:01:44;31.20;32.80
80176;DHT22;69501;42.124;24.722;2023-07-08T14:04:18;31.10;32.90
80176;DHT22;69501;42.124;24.722;2023-07-08T14:06:45;31.00;33.40
80176;DHT22;69501;42.124;24.722;2023-07-08T14:09:20;30.50;36.50
80176;DHT22;69501;42.124;24.722;2023-07-08T14:11:47;30.00;38.00
80176;DHT22;69501;42.124;24.722;2023-07-08T14:14:13;29.50;39.20
80176;DHT22;69501;42.124;24.722;2023-07-08T14:16:50;29.20;39.80
80176;DHT22;69501;42.124;24.722;2023-07-08T14:19:27;29.10;40.50
80176;DHT22;69501;42.124;24.722;2023-07-08T14:22:00;28.90;40.40
80176;DHT22;69501;42.124;24.722;2023-07-08T14:24:26;28.80;40.40
80176;DHT22;69501;42.124;24.722;2023-07-08T14:26:52;28.70;40.60
80176;DHT22;69501;42.124;24.722;2023-07-08T14:29:19;28.70;40.60
80176;DHT22;69501;42.124;24.722;2023-07-08T14:31:44;28.60;40.70
80176;DHT22;69501;42.124;24.722;2023-07-08T14:34:23;28.60;41.30
80176;DHT22;69501;42.124;24.722;2023-07-08T14:36:50;28.60;42.40
80176;DHT22;69501;42.124;24.722;2023-07-08T14:39:17;28.60;42.90
80176;DHT22;69501;42.124;24.722;2023-07-08T14:41:43;28.70;43.90
80176;DHT22;69501;42.124;24.722;2023-07-08T14:44:32;28.60;43.80
80176;DHT22;69501;42.124;24.722;2023-07-08T14:46:59;28.50;44.20
80176;DHT22;69501;42.124;24.722;2023-07-08T14:49:25;28.40;44.10
80176;DHT22;69501;42.124;24.722;2023-07-08T14:51:51;28.30;44.00
80176;DHT22;69501;42.124;24.722;2023-07-08T14:54:21;28.20;44.00
80176;DHT22;69501;42.124;24.722;2023-07-08T14:56:47;28.10;44.20
80176;DHT22;69501;42.124;24.722;2023-07-08T14:59:17;28.00;44.30
80176;DHT22;69501;42.124;24.722;2023-07-08T15:01:44;27.90;44.10
80176;DHT22;69501;42.124;24.722;2023-07-08T15:04:12;27.80;43.60
80176;DHT22;69501;42.124;24.722;2023-07-08T15:06:38;27.70;43.60
80176;DHT22;69501;42.124;24.722;2023-07-08T15:09:04;27.60;44.20
80176;DHT22;69501;42.124;24.722;2023-07-08T15:11:31;27.50;45.70
80176;DHT22;69501;42.124;24.722;2023-07-08T15:13:58;27.40;46.50
80176;DHT22;69501;42.124;24.722;2023-07-08T15:16:23;27.40;47.00
80176;DHT22;69501;42.124;24.722;2023-07-08T15:18:49;27.50;47.70
80176;DHT22;69501;42.124;24.722;2023-07-08T15:21:15;27.60;47.50
80176;DHT22;69501;42.124;24.722;2023-07-08T15:23:41;27.70;46.50
80176;DHT22;69501;42.124;24.722;2023-07-08T15:26:11;27.80;46.10
80176;DHT22;69501;42.124;24.722;2023-07-08T15:28:47;28.00;45.60
80176;DHT22;69501;42.124;24.722;2023-07-08T15:31:25;28.20;45.30
80176;DHT22;69501;42.124;24.722;2023-07-08T15:33:52;28.30;46.40
80176;DHT22;69501;42.124;24.722;2023-07-08T15:36:19;28.30;45.00
80176;DHT22;69501;42.124;24.722;2023-07-08T15:38:45;28.30;43.40
80176;DHT22;69501;42.124;24.722;2023-07-08T15:41:20;28.30;42.90
80176;DHT22;69501;42.124;24.722;2023-07-08T15:43:47;28.40;42.90
80176;DHT22;69501;42.124;24.722;2023-07-08T15:46:13;28.50;42.50
80176;DHT22;69501;42.124;24.722;2023-07-08T15:48:40;28.50;42.70
80176;DHT22;69501;42.124;24.722;2023-07-08T15:51:05;28.50;42.80
80176;DHT22;69501;42.124;24.722;2023-07-08T15:53:31;28.50;42.80
80176;DHT22;69501;42.124;24.722;2023-07-08T15:55:57;28.50;43.10
80176;DHT22;69501;42.124;24.722;2023-07-08T15:58:29;28.40;43.30
80176;DHT22;69501;42.124;24.722;2023-07-08T16:00:58;28.40;43.30
80176;DHT22;69501;42.124;24.722;2023-07-08T16:03:26;28.30;42.90
80176;DHT22;69501;42.124;24.722;2023-07-08T16:05:53;28.30;43.60
80176;DHT22;69501;42.124;24.722;2023-07-08T16:08:20;28.40;42.50
80176;DHT22;69501;42.124;24.722;2023-07-08T16:11:10;28.40;42.40
80176;DHT22;69501;42.124;24.722;2023-07-08T16:13:40;28.40;41.90
80176;DHT22;69501;42.124;24.722;2023-07-08T16:16:08;28.40;41.30
80176;DHT22;69501;42.124;24.722;2023-07-08T16:18:34;28.40;41.50
80176;DHT22;69501;42.124;24.722;2023-07-08T16:21:00;28.40;41.50
80176;DHT22;69501;42.124;24.722;2023-07-08T16:23:25;28.40;41.40
80176;DHT22;69501;42.124;24.722;2023-07-08T16:25:52;28.40;41.50
80176;DHT22;69501;42.124;24.722;2023-07-08T16:28:38;28.40;41.60
80176;DHT22;69501;42.124;24.722;2023-07-08T16:31:16;28.30;41.70